<?xml version="1.0" encoding="UTF-8" standalone="no" ?>
<gpx xmlns="http://www.topografix.com/GPX/1/1" xmlns:xsi="http://www.w3.org/2001/XMLSchema-instance" xsi:schemaLocation="http://www.topografix.com/GPX/1/1 http://www.topografix.com/GPX/1/1/gpx.xsd" version="1.1" creator="VisuGPX - https://www.visugpx.com">
  <metadata>
    <name>Sagnes et Goudoulet rando du dimanche 13 sep. 2020</name>
    <desc><![CDATA[Week end Sagnes et Goudoulet .Randonnée au Mont Mezenc le dimanche 13 septembre 2020.]]></desc>
  </metadata>
  <trk>
    <name><![CDATA[2020-09-13 12-25-35]]></name>
    <trkseg>
      <trkpt lat="44.89954" lon="4.18504">
        <ele>1517.58</ele>
        <time>2020-09-13T08:12:22Z</time>
      </trkpt>
      <trkpt lat="44.89954" lon="4.18504">
        <ele>1518.54</ele>
        <time>2020-09-13T08:12:23Z</time>
      </trkpt>
      <trkpt lat="44.89953" lon="4.18505">
        <ele>1518.06</ele>
        <time>2020-09-13T08:12:55Z</time>
      </trkpt>
      <trkpt lat="44.89955" lon="4.18506">
        <ele>1518.54</ele>
        <time>2020-09-13T08:13:18Z</time>
      </trkpt>
      <trkpt lat="44.89955" lon="4.18506">
        <ele>1519.02</ele>
        <time>2020-09-13T08:13:45Z</time>
      </trkpt>
      <trkpt lat="44.89955" lon="4.18506">
        <ele>1518.06</ele>
        <time>2020-09-13T08:14:10Z</time>
      </trkpt>
      <trkpt lat="44.89953" lon="4.18506">
        <ele>1518.54</ele>
        <time>2020-09-13T08:14:42Z</time>
      </trkpt>
      <trkpt lat="44.89955" lon="4.18507">
        <ele>1518.54</ele>
        <time>2020-09-13T08:15:11Z</time>
      </trkpt>
      <trkpt lat="44.89955" lon="4.18506">
        <ele>1518.54</ele>
        <time>2020-09-13T08:15:41Z</time>
      </trkpt>
      <trkpt lat="44.89954" lon="4.18506">
        <ele>1518.54</ele>
        <time>2020-09-13T08:16:10Z</time>
      </trkpt>
      <trkpt lat="44.8995" lon="4.18506">
        <ele>1518.54</ele>
        <time>2020-09-13T08:16:41Z</time>
      </trkpt>
      <trkpt lat="44.89948" lon="4.1851">
        <ele>1518.54</ele>
        <time>2020-09-13T08:17:00Z</time>
      </trkpt>
      <trkpt lat="44.89956" lon="4.18519">
        <ele>1518.54</ele>
        <time>2020-09-13T08:17:13Z</time>
      </trkpt>
      <trkpt lat="44.89961" lon="4.1852">
        <ele>1518.54</ele>
        <time>2020-09-13T08:17:17Z</time>
      </trkpt>
      <trkpt lat="44.89974" lon="4.18527">
        <ele>1519.02</ele>
        <time>2020-09-13T08:17:34Z</time>
      </trkpt>
      <trkpt lat="44.8998" lon="4.18527">
        <ele>1519.02</ele>
        <time>2020-09-13T08:17:40Z</time>
      </trkpt>
      <trkpt lat="44.89988" lon="4.18528">
        <ele>1519.98</ele>
        <time>2020-09-13T08:17:55Z</time>
      </trkpt>
      <trkpt lat="44.89999" lon="4.18529">
        <ele>1521.42</ele>
        <time>2020-09-13T08:18:12Z</time>
      </trkpt>
      <trkpt lat="44.90012" lon="4.18528">
        <ele>1522.39</ele>
        <time>2020-09-13T08:18:25Z</time>
      </trkpt>
      <trkpt lat="44.90013" lon="4.18526">
        <ele>1522.39</ele>
        <time>2020-09-13T08:18:27Z</time>
      </trkpt>
      <trkpt lat="44.90031" lon="4.18509">
        <ele>1524.31</ele>
        <time>2020-09-13T08:18:50Z</time>
      </trkpt>
      <trkpt lat="44.90052" lon="4.18508">
        <ele>1527.19</ele>
        <time>2020-09-13T08:19:10Z</time>
      </trkpt>
      <trkpt lat="44.9007" lon="4.18521">
        <ele>1529.11</ele>
        <time>2020-09-13T08:19:33Z</time>
      </trkpt>
      <trkpt lat="44.90088" lon="4.18533">
        <ele>1529.11</ele>
        <time>2020-09-13T08:19:53Z</time>
      </trkpt>
      <trkpt lat="44.90101" lon="4.18542">
        <ele>1528.63</ele>
        <time>2020-09-13T08:20:08Z</time>
      </trkpt>
      <trkpt lat="44.90106" lon="4.18545">
        <ele>1528.63</ele>
        <time>2020-09-13T08:20:13Z</time>
      </trkpt>
      <trkpt lat="44.90121" lon="4.18547">
        <ele>1529.59</ele>
        <time>2020-09-13T08:20:28Z</time>
      </trkpt>
      <trkpt lat="44.90125" lon="4.18552">
        <ele>1529.59</ele>
        <time>2020-09-13T08:20:42Z</time>
      </trkpt>
      <trkpt lat="44.90134" lon="4.18558">
        <ele>1530.56</ele>
        <time>2020-09-13T08:21:00Z</time>
      </trkpt>
      <trkpt lat="44.9015" lon="4.18574">
        <ele>1531.04</ele>
        <time>2020-09-13T08:21:20Z</time>
      </trkpt>
      <trkpt lat="44.90157" lon="4.18588">
        <ele>1533.44</ele>
        <time>2020-09-13T08:21:36Z</time>
      </trkpt>
      <trkpt lat="44.90174" lon="4.186">
        <ele>1534.88</ele>
        <time>2020-09-13T08:21:53Z</time>
      </trkpt>
      <trkpt lat="44.90182" lon="4.18608">
        <ele>1536.32</ele>
        <time>2020-09-13T08:22:10Z</time>
      </trkpt>
      <trkpt lat="44.90198" lon="4.18617">
        <ele>1537.77</ele>
        <time>2020-09-13T08:22:28Z</time>
      </trkpt>
      <trkpt lat="44.90203" lon="4.18599">
        <ele>1539.69</ele>
        <time>2020-09-13T08:22:48Z</time>
      </trkpt>
      <trkpt lat="44.90212" lon="4.1858">
        <ele>1541.13</ele>
        <time>2020-09-13T08:23:02Z</time>
      </trkpt>
      <trkpt lat="44.90224" lon="4.18568">
        <ele>1542.57</ele>
        <time>2020-09-13T08:23:18Z</time>
      </trkpt>
      <trkpt lat="44.90234" lon="4.1857">
        <ele>1544.98</ele>
        <time>2020-09-13T08:23:38Z</time>
      </trkpt>
      <trkpt lat="44.90246" lon="4.18595">
        <ele>1546.9</ele>
        <time>2020-09-13T08:24:01Z</time>
      </trkpt>
      <trkpt lat="44.90252" lon="4.18607">
        <ele>1548.82</ele>
        <time>2020-09-13T08:24:20Z</time>
      </trkpt>
      <trkpt lat="44.90267" lon="4.18598">
        <ele>1550.26</ele>
        <time>2020-09-13T08:24:41Z</time>
      </trkpt>
      <trkpt lat="44.90283" lon="4.18598">
        <ele>1552.19</ele>
        <time>2020-09-13T08:25:02Z</time>
      </trkpt>
      <trkpt lat="44.90302" lon="4.18592">
        <ele>1553.63</ele>
        <time>2020-09-13T08:25:22Z</time>
      </trkpt>
      <trkpt lat="44.90313" lon="4.1859">
        <ele>1556.03</ele>
        <time>2020-09-13T08:25:42Z</time>
      </trkpt>
      <trkpt lat="44.90315" lon="4.18594">
        <ele>1556.99</ele>
        <time>2020-09-13T08:25:46Z</time>
      </trkpt>
      <trkpt lat="44.90321" lon="4.18606">
        <ele>1558.43</ele>
        <time>2020-09-13T08:26:04Z</time>
      </trkpt>
      <trkpt lat="44.90337" lon="4.18609">
        <ele>1560.84</ele>
        <time>2020-09-13T08:26:25Z</time>
      </trkpt>
      <trkpt lat="44.90351" lon="4.18605">
        <ele>1562.76</ele>
        <time>2020-09-13T08:26:45Z</time>
      </trkpt>
      <trkpt lat="44.90361" lon="4.18599">
        <ele>1563.72</ele>
        <time>2020-09-13T08:27:02Z</time>
      </trkpt>
      <trkpt lat="44.90382" lon="4.1859">
        <ele>1565.16</ele>
        <time>2020-09-13T08:27:23Z</time>
      </trkpt>
      <trkpt lat="44.90384" lon="4.18598">
        <ele>1567.57</ele>
        <time>2020-09-13T08:27:41Z</time>
      </trkpt>
      <trkpt lat="44.90385" lon="4.186">
        <ele>1567.57</ele>
        <time>2020-09-13T08:27:43Z</time>
      </trkpt>
      <trkpt lat="44.90383" lon="4.18616">
        <ele>1568.05</ele>
        <time>2020-09-13T08:27:54Z</time>
      </trkpt>
      <trkpt lat="44.90379" lon="4.18622">
        <ele>1568.53</ele>
        <time>2020-09-13T08:28:00Z</time>
      </trkpt>
      <trkpt lat="44.90372" lon="4.18638">
        <ele>1569.97</ele>
        <time>2020-09-13T08:28:13Z</time>
      </trkpt>
      <trkpt lat="44.90375" lon="4.18637">
        <ele>1571.89</ele>
        <time>2020-09-13T08:28:27Z</time>
      </trkpt>
      <trkpt lat="44.9039" lon="4.18627">
        <ele>1573.33</ele>
        <time>2020-09-13T08:28:44Z</time>
      </trkpt>
      <trkpt lat="44.904" lon="4.18624">
        <ele>1573.82</ele>
        <time>2020-09-13T08:28:55Z</time>
      </trkpt>
      <trkpt lat="44.90411" lon="4.18623">
        <ele>1574.78</ele>
        <time>2020-09-13T08:29:08Z</time>
      </trkpt>
      <trkpt lat="44.90424" lon="4.18628">
        <ele>1576.22</ele>
        <time>2020-09-13T08:29:21Z</time>
      </trkpt>
      <trkpt lat="44.90428" lon="4.18627">
        <ele>1576.7</ele>
        <time>2020-09-13T08:29:25Z</time>
      </trkpt>
      <trkpt lat="44.90441" lon="4.18632">
        <ele>1577.66</ele>
        <time>2020-09-13T08:29:40Z</time>
      </trkpt>
      <trkpt lat="44.90438" lon="4.18651">
        <ele>1579.58</ele>
        <time>2020-09-13T08:29:58Z</time>
      </trkpt>
      <trkpt lat="44.9044" lon="4.18659">
        <ele>1579.1</ele>
        <time>2020-09-13T08:30:28Z</time>
      </trkpt>
      <trkpt lat="44.90443" lon="4.18654">
        <ele>1579.58</ele>
        <time>2020-09-13T08:31:51Z</time>
      </trkpt>
      <trkpt lat="44.9044" lon="4.18656">
        <ele>1579.58</ele>
        <time>2020-09-13T08:32:21Z</time>
      </trkpt>
      <trkpt lat="44.90438" lon="4.18658">
        <ele>1579.58</ele>
        <time>2020-09-13T08:32:51Z</time>
      </trkpt>
      <trkpt lat="44.90441" lon="4.18667">
        <ele>1579.58</ele>
        <time>2020-09-13T08:33:13Z</time>
      </trkpt>
      <trkpt lat="44.90446" lon="4.18694">
        <ele>1579.58</ele>
        <time>2020-09-13T08:33:34Z</time>
      </trkpt>
      <trkpt lat="44.90448" lon="4.18699">
        <ele>1581.99</ele>
        <time>2020-09-13T08:33:38Z</time>
      </trkpt>
      <trkpt lat="44.90456" lon="4.18717">
        <ele>1584.39</ele>
        <time>2020-09-13T08:33:59Z</time>
      </trkpt>
      <trkpt lat="44.90463" lon="4.18733">
        <ele>1585.83</ele>
        <time>2020-09-13T08:34:18Z</time>
      </trkpt>
      <trkpt lat="44.90469" lon="4.18755">
        <ele>1587.75</ele>
        <time>2020-09-13T08:34:37Z</time>
      </trkpt>
      <trkpt lat="44.90476" lon="4.18765">
        <ele>1589.2</ele>
        <time>2020-09-13T08:34:48Z</time>
      </trkpt>
      <trkpt lat="44.90476" lon="4.1877">
        <ele>1589.2</ele>
        <time>2020-09-13T08:34:51Z</time>
      </trkpt>
      <trkpt lat="44.90476" lon="4.18788">
        <ele>1590.64</ele>
        <time>2020-09-13T08:35:07Z</time>
      </trkpt>
      <trkpt lat="44.90477" lon="4.18792">
        <ele>1590.64</ele>
        <time>2020-09-13T08:35:11Z</time>
      </trkpt>
      <trkpt lat="44.90477" lon="4.18795">
        <ele>1591.12</ele>
        <time>2020-09-13T08:35:13Z</time>
      </trkpt>
      <trkpt lat="44.90478" lon="4.18801">
        <ele>1591.12</ele>
        <time>2020-09-13T08:35:16Z</time>
      </trkpt>
      <trkpt lat="44.90481" lon="4.18809">
        <ele>1593.04</ele>
        <time>2020-09-13T08:35:31Z</time>
      </trkpt>
      <trkpt lat="44.90486" lon="4.18804">
        <ele>1593.04</ele>
        <time>2020-09-13T08:35:36Z</time>
      </trkpt>
      <trkpt lat="44.90492" lon="4.18791">
        <ele>1593.52</ele>
        <time>2020-09-13T08:35:50Z</time>
      </trkpt>
      <trkpt lat="44.90507" lon="4.18772">
        <ele>1596.41</ele>
        <time>2020-09-13T08:36:10Z</time>
      </trkpt>
      <trkpt lat="44.90522" lon="4.1876">
        <ele>1599.77</ele>
        <time>2020-09-13T08:36:32Z</time>
      </trkpt>
      <trkpt lat="44.90528" lon="4.18753">
        <ele>1602.66</ele>
        <time>2020-09-13T08:36:50Z</time>
      </trkpt>
      <trkpt lat="44.90536" lon="4.1875">
        <ele>1604.58</ele>
        <time>2020-09-13T08:37:07Z</time>
      </trkpt>
      <trkpt lat="44.90542" lon="4.18752">
        <ele>1606.02</ele>
        <time>2020-09-13T08:37:27Z</time>
      </trkpt>
      <trkpt lat="44.90561" lon="4.18747">
        <ele>1608.9</ele>
        <time>2020-09-13T08:37:46Z</time>
      </trkpt>
      <trkpt lat="44.90568" lon="4.18747">
        <ele>1610.35</ele>
        <time>2020-09-13T08:37:58Z</time>
      </trkpt>
      <trkpt lat="44.90573" lon="4.18743">
        <ele>1610.83</ele>
        <time>2020-09-13T08:38:08Z</time>
      </trkpt>
      <trkpt lat="44.90597" lon="4.18738">
        <ele>1613.23</ele>
        <time>2020-09-13T08:38:31Z</time>
      </trkpt>
      <trkpt lat="44.90609" lon="4.18733">
        <ele>1615.15</ele>
        <time>2020-09-13T08:38:52Z</time>
      </trkpt>
      <trkpt lat="44.90627" lon="4.18742">
        <ele>1617.56</ele>
        <time>2020-09-13T08:39:15Z</time>
      </trkpt>
      <trkpt lat="44.90643" lon="4.18745">
        <ele>1619.48</ele>
        <time>2020-09-13T08:39:32Z</time>
      </trkpt>
      <trkpt lat="44.90655" lon="4.18744">
        <ele>1620.92</ele>
        <time>2020-09-13T08:39:50Z</time>
      </trkpt>
      <trkpt lat="44.90671" lon="4.18741">
        <ele>1621.88</ele>
        <time>2020-09-13T08:40:13Z</time>
      </trkpt>
      <trkpt lat="44.90693" lon="4.18739">
        <ele>1622.84</ele>
        <time>2020-09-13T08:40:34Z</time>
      </trkpt>
      <trkpt lat="44.90709" lon="4.18742">
        <ele>1625.25</ele>
        <time>2020-09-13T08:40:56Z</time>
      </trkpt>
      <trkpt lat="44.90709" lon="4.18743">
        <ele>1625.73</ele>
        <time>2020-09-13T08:40:58Z</time>
      </trkpt>
      <trkpt lat="44.90725" lon="4.18747">
        <ele>1626.21</ele>
        <time>2020-09-13T08:41:10Z</time>
      </trkpt>
      <trkpt lat="44.90736" lon="4.18751">
        <ele>1627.65</ele>
        <time>2020-09-13T08:41:23Z</time>
      </trkpt>
      <trkpt lat="44.9075" lon="4.18754">
        <ele>1629.09</ele>
        <time>2020-09-13T08:41:41Z</time>
      </trkpt>
      <trkpt lat="44.90764" lon="4.18759">
        <ele>1630.53</ele>
        <time>2020-09-13T08:41:56Z</time>
      </trkpt>
      <trkpt lat="44.90778" lon="4.18768">
        <ele>1633.42</ele>
        <time>2020-09-13T08:42:19Z</time>
      </trkpt>
      <trkpt lat="44.90791" lon="4.18767">
        <ele>1636.78</ele>
        <time>2020-09-13T08:42:33Z</time>
      </trkpt>
      <trkpt lat="44.90801" lon="4.18773">
        <ele>1640.15</ele>
        <time>2020-09-13T08:42:50Z</time>
      </trkpt>
      <trkpt lat="44.90809" lon="4.18776">
        <ele>1640.15</ele>
        <time>2020-09-13T08:43:12Z</time>
      </trkpt>
      <trkpt lat="44.90821" lon="4.18783">
        <ele>1641.11</ele>
        <time>2020-09-13T08:43:33Z</time>
      </trkpt>
      <trkpt lat="44.90841" lon="4.18789">
        <ele>1642.55</ele>
        <time>2020-09-13T08:43:54Z</time>
      </trkpt>
      <trkpt lat="44.90856" lon="4.18801">
        <ele>1644.47</ele>
        <time>2020-09-13T08:44:16Z</time>
      </trkpt>
      <trkpt lat="44.90878" lon="4.18805">
        <ele>1645.91</ele>
        <time>2020-09-13T08:44:39Z</time>
      </trkpt>
      <trkpt lat="44.90898" lon="4.1881">
        <ele>1646.88</ele>
        <time>2020-09-13T08:45:01Z</time>
      </trkpt>
      <trkpt lat="44.90912" lon="4.18816">
        <ele>1648.32</ele>
        <time>2020-09-13T08:45:17Z</time>
      </trkpt>
      <trkpt lat="44.90925" lon="4.18812">
        <ele>1649.28</ele>
        <time>2020-09-13T08:45:34Z</time>
      </trkpt>
      <trkpt lat="44.90945" lon="4.18801">
        <ele>1650.24</ele>
        <time>2020-09-13T08:45:53Z</time>
      </trkpt>
      <trkpt lat="44.90969" lon="4.18795">
        <ele>1651.2</ele>
        <time>2020-09-13T08:46:12Z</time>
      </trkpt>
      <trkpt lat="44.90979" lon="4.18781">
        <ele>1651.2</ele>
        <time>2020-09-13T08:46:31Z</time>
      </trkpt>
      <trkpt lat="44.90983" lon="4.18779">
        <ele>1651.2</ele>
        <time>2020-09-13T08:46:48Z</time>
      </trkpt>
      <trkpt lat="44.90997" lon="4.18773">
        <ele>1651.2</ele>
        <time>2020-09-13T08:47:07Z</time>
      </trkpt>
      <trkpt lat="44.91011" lon="4.18763">
        <ele>1652.16</ele>
        <time>2020-09-13T08:47:25Z</time>
      </trkpt>
      <trkpt lat="44.91022" lon="4.18763">
        <ele>1652.16</ele>
        <time>2020-09-13T08:47:37Z</time>
      </trkpt>
      <trkpt lat="44.9104" lon="4.18773">
        <ele>1655.05</ele>
        <time>2020-09-13T08:47:59Z</time>
      </trkpt>
      <trkpt lat="44.91059" lon="4.18776">
        <ele>1656.49</ele>
        <time>2020-09-13T08:48:17Z</time>
      </trkpt>
      <trkpt lat="44.91062" lon="4.18777">
        <ele>1656.97</ele>
        <time>2020-09-13T08:48:19Z</time>
      </trkpt>
      <trkpt lat="44.91069" lon="4.18793">
        <ele>1658.41</ele>
        <time>2020-09-13T08:48:36Z</time>
      </trkpt>
      <trkpt lat="44.91079" lon="4.18811">
        <ele>1661.3</ele>
        <time>2020-09-13T08:48:56Z</time>
      </trkpt>
      <trkpt lat="44.9109" lon="4.18816">
        <ele>1662.74</ele>
        <time>2020-09-13T08:49:13Z</time>
      </trkpt>
      <trkpt lat="44.91101" lon="4.18825">
        <ele>1663.7</ele>
        <time>2020-09-13T08:49:30Z</time>
      </trkpt>
      <trkpt lat="44.91116" lon="4.18836">
        <ele>1666.58</ele>
        <time>2020-09-13T08:49:52Z</time>
      </trkpt>
      <trkpt lat="44.9113" lon="4.18842">
        <ele>1668.51</ele>
        <time>2020-09-13T08:50:12Z</time>
      </trkpt>
      <trkpt lat="44.91146" lon="4.18838">
        <ele>1668.99</ele>
        <time>2020-09-13T08:50:29Z</time>
      </trkpt>
      <trkpt lat="44.91154" lon="4.18838">
        <ele>1668.99</ele>
        <time>2020-09-13T08:50:44Z</time>
      </trkpt>
      <trkpt lat="44.91153" lon="4.18839">
        <ele>1668.99</ele>
        <time>2020-09-13T08:51:12Z</time>
      </trkpt>
      <trkpt lat="44.91154" lon="4.18837">
        <ele>1669.47</ele>
        <time>2020-09-13T08:51:34Z</time>
      </trkpt>
      <trkpt lat="44.91154" lon="4.18839">
        <ele>1669.47</ele>
        <time>2020-09-13T08:52:09Z</time>
      </trkpt>
      <trkpt lat="44.91154" lon="4.18842">
        <ele>1669.47</ele>
        <time>2020-09-13T08:52:32Z</time>
      </trkpt>
      <trkpt lat="44.91154" lon="4.18839">
        <ele>1669.47</ele>
        <time>2020-09-13T08:52:56Z</time>
      </trkpt>
      <trkpt lat="44.91164" lon="4.18839">
        <ele>1669.47</ele>
        <time>2020-09-13T08:53:20Z</time>
      </trkpt>
      <trkpt lat="44.91164" lon="4.18848">
        <ele>1672.35</ele>
        <time>2020-09-13T08:53:28Z</time>
      </trkpt>
      <trkpt lat="44.91161" lon="4.18867">
        <ele>1675.23</ele>
        <time>2020-09-13T08:53:46Z</time>
      </trkpt>
      <trkpt lat="44.91158" lon="4.18879">
        <ele>1678.6</ele>
        <time>2020-09-13T08:54:02Z</time>
      </trkpt>
      <trkpt lat="44.91152" lon="4.18893">
        <ele>1681</ele>
        <time>2020-09-13T08:54:19Z</time>
      </trkpt>
      <trkpt lat="44.91161" lon="4.18903">
        <ele>1682.44</ele>
        <time>2020-09-13T08:54:34Z</time>
      </trkpt>
      <trkpt lat="44.91173" lon="4.18908">
        <ele>1685.81</ele>
        <time>2020-09-13T08:54:54Z</time>
      </trkpt>
      <trkpt lat="44.91187" lon="4.18916">
        <ele>1688.69</ele>
        <time>2020-09-13T08:55:14Z</time>
      </trkpt>
      <trkpt lat="44.912" lon="4.18922">
        <ele>1691.58</ele>
        <time>2020-09-13T08:55:37Z</time>
      </trkpt>
      <trkpt lat="44.91213" lon="4.18925">
        <ele>1694.94</ele>
        <time>2020-09-13T08:55:58Z</time>
      </trkpt>
      <trkpt lat="44.91227" lon="4.1893">
        <ele>1696.38</ele>
        <time>2020-09-13T08:56:17Z</time>
      </trkpt>
      <trkpt lat="44.91241" lon="4.1894">
        <ele>1698.31</ele>
        <time>2020-09-13T08:56:37Z</time>
      </trkpt>
      <trkpt lat="44.91247" lon="4.1895">
        <ele>1701.19</ele>
        <time>2020-09-13T08:56:55Z</time>
      </trkpt>
      <trkpt lat="44.91254" lon="4.18964">
        <ele>1704.55</ele>
        <time>2020-09-13T08:57:14Z</time>
      </trkpt>
      <trkpt lat="44.9126" lon="4.18977">
        <ele>1707.44</ele>
        <time>2020-09-13T08:57:30Z</time>
      </trkpt>
      <trkpt lat="44.91271" lon="4.18989">
        <ele>1710.8</ele>
        <time>2020-09-13T08:57:50Z</time>
      </trkpt>
      <trkpt lat="44.91273" lon="4.18994">
        <ele>1712.25</ele>
        <time>2020-09-13T08:58:10Z</time>
      </trkpt>
      <trkpt lat="44.91273" lon="4.18995">
        <ele>1711.76</ele>
        <time>2020-09-13T08:58:38Z</time>
      </trkpt>
      <trkpt lat="44.91275" lon="4.18994">
        <ele>1712.25</ele>
        <time>2020-09-13T08:59:09Z</time>
      </trkpt>
      <trkpt lat="44.91273" lon="4.18995">
        <ele>1712.25</ele>
        <time>2020-09-13T08:59:42Z</time>
      </trkpt>
      <trkpt lat="44.91273" lon="4.18994">
        <ele>1712.25</ele>
        <time>2020-09-13T09:00:13Z</time>
      </trkpt>
      <trkpt lat="44.91274" lon="4.18993">
        <ele>1712.25</ele>
        <time>2020-09-13T09:00:42Z</time>
      </trkpt>
      <trkpt lat="44.91274" lon="4.18999">
        <ele>1712.25</ele>
        <time>2020-09-13T09:00:56Z</time>
      </trkpt>
      <trkpt lat="44.91273" lon="4.1901">
        <ele>1713.21</ele>
        <time>2020-09-13T09:01:04Z</time>
      </trkpt>
      <trkpt lat="44.91273" lon="4.1902">
        <ele>1714.65</ele>
        <time>2020-09-13T09:01:10Z</time>
      </trkpt>
      <trkpt lat="44.91271" lon="4.19043">
        <ele>1716.09</ele>
        <time>2020-09-13T09:01:27Z</time>
      </trkpt>
      <trkpt lat="44.91268" lon="4.1907">
        <ele>1718.49</ele>
        <time>2020-09-13T09:01:47Z</time>
      </trkpt>
      <trkpt lat="44.91266" lon="4.19075">
        <ele>1718.97</ele>
        <time>2020-09-13T09:01:52Z</time>
      </trkpt>
      <trkpt lat="44.91263" lon="4.19087">
        <ele>1720.42</ele>
        <time>2020-09-13T09:02:02Z</time>
      </trkpt>
      <trkpt lat="44.91259" lon="4.1911">
        <ele>1722.82</ele>
        <time>2020-09-13T09:02:19Z</time>
      </trkpt>
      <trkpt lat="44.91253" lon="4.19123">
        <ele>1723.78</ele>
        <time>2020-09-13T09:02:31Z</time>
      </trkpt>
      <trkpt lat="44.91242" lon="4.19138">
        <ele>1725.22</ele>
        <time>2020-09-13T09:02:48Z</time>
      </trkpt>
      <trkpt lat="44.9124" lon="4.19137">
        <ele>1725.22</ele>
        <time>2020-09-13T09:03:06Z</time>
      </trkpt>
      <trkpt lat="44.91239" lon="4.19139">
        <ele>1725.22</ele>
        <time>2020-09-13T09:03:29Z</time>
      </trkpt>
      <trkpt lat="44.91233" lon="4.19139">
        <ele>1725.7</ele>
        <time>2020-09-13T09:03:36Z</time>
      </trkpt>
      <trkpt lat="44.91226" lon="4.19138">
        <ele>1726.18</ele>
        <time>2020-09-13T09:03:43Z</time>
      </trkpt>
      <trkpt lat="44.91216" lon="4.1913">
        <ele>1729.07</ele>
        <time>2020-09-13T09:03:58Z</time>
      </trkpt>
      <trkpt lat="44.91206" lon="4.19129">
        <ele>1731.95</ele>
        <time>2020-09-13T09:04:11Z</time>
      </trkpt>
      <trkpt lat="44.9119" lon="4.19133">
        <ele>1732.43</ele>
        <time>2020-09-13T09:04:26Z</time>
      </trkpt>
      <trkpt lat="44.91186" lon="4.19133">
        <ele>1732.91</ele>
        <time>2020-09-13T09:04:30Z</time>
      </trkpt>
      <trkpt lat="44.9117" lon="4.1913">
        <ele>1734.84</ele>
        <time>2020-09-13T09:04:48Z</time>
      </trkpt>
      <trkpt lat="44.9116" lon="4.19124">
        <ele>1735.8</ele>
        <time>2020-09-13T09:05:02Z</time>
      </trkpt>
      <trkpt lat="44.91146" lon="4.19121">
        <ele>1739.16</ele>
        <time>2020-09-13T09:05:19Z</time>
      </trkpt>
      <trkpt lat="44.91133" lon="4.19113">
        <ele>1741.57</ele>
        <time>2020-09-13T09:05:37Z</time>
      </trkpt>
      <trkpt lat="44.91121" lon="4.19104">
        <ele>1744.93</ele>
        <time>2020-09-13T09:05:54Z</time>
      </trkpt>
      <trkpt lat="44.91108" lon="4.19098">
        <ele>1747.81</ele>
        <time>2020-09-13T09:06:11Z</time>
      </trkpt>
      <trkpt lat="44.91102" lon="4.19086">
        <ele>1749.74</ele>
        <time>2020-09-13T09:06:25Z</time>
      </trkpt>
      <trkpt lat="44.91102" lon="4.19083">
        <ele>1750.22</ele>
        <time>2020-09-13T09:06:45Z</time>
      </trkpt>
      <trkpt lat="44.91101" lon="4.19083">
        <ele>1750.22</ele>
        <time>2020-09-13T09:07:06Z</time>
      </trkpt>
      <trkpt lat="44.91099" lon="4.19086">
        <ele>1748.78</ele>
        <time>2020-09-13T09:07:22Z</time>
      </trkpt>
      <trkpt lat="44.91099" lon="4.19088">
        <ele>1748.29</ele>
        <time>2020-09-13T09:07:46Z</time>
      </trkpt>
      <trkpt lat="44.91098" lon="4.19087">
        <ele>1748.29</ele>
        <time>2020-09-13T09:09:24Z</time>
      </trkpt>
      <trkpt lat="44.91098" lon="4.19088">
        <ele>1748.29</ele>
        <time>2020-09-13T09:10:17Z</time>
      </trkpt>
      <trkpt lat="44.91099" lon="4.19085">
        <ele>1748.29</ele>
        <time>2020-09-13T09:11:00Z</time>
      </trkpt>
      <trkpt lat="44.91101" lon="4.19089">
        <ele>1748.29</ele>
        <time>2020-09-13T09:11:14Z</time>
      </trkpt>
      <trkpt lat="44.91102" lon="4.1909">
        <ele>1748.29</ele>
        <time>2020-09-13T09:11:46Z</time>
      </trkpt>
      <trkpt lat="44.91102" lon="4.19092">
        <ele>1748.29</ele>
        <time>2020-09-13T09:12:12Z</time>
      </trkpt>
      <trkpt lat="44.91101" lon="4.19095">
        <ele>1748.29</ele>
        <time>2020-09-13T09:12:29Z</time>
      </trkpt>
      <trkpt lat="44.91104" lon="4.19093">
        <ele>1748.29</ele>
        <time>2020-09-13T09:12:52Z</time>
      </trkpt>
      <trkpt lat="44.91104" lon="4.19091">
        <ele>1748.29</ele>
        <time>2020-09-13T09:13:21Z</time>
      </trkpt>
      <trkpt lat="44.9111" lon="4.1909">
        <ele>1748.29</ele>
        <time>2020-09-13T09:13:45Z</time>
      </trkpt>
      <trkpt lat="44.91108" lon="4.1909">
        <ele>1748.29</ele>
        <time>2020-09-13T09:14:10Z</time>
      </trkpt>
      <trkpt lat="44.91103" lon="4.19094">
        <ele>1748.29</ele>
        <time>2020-09-13T09:14:37Z</time>
      </trkpt>
      <trkpt lat="44.91099" lon="4.19095">
        <ele>1748.29</ele>
        <time>2020-09-13T09:14:57Z</time>
      </trkpt>
      <trkpt lat="44.91102" lon="4.19095">
        <ele>1748.29</ele>
        <time>2020-09-13T09:15:17Z</time>
      </trkpt>
      <trkpt lat="44.91102" lon="4.19095">
        <ele>1748.29</ele>
        <time>2020-09-13T09:15:38Z</time>
      </trkpt>
      <trkpt lat="44.91104" lon="4.19092">
        <ele>1748.29</ele>
        <time>2020-09-13T09:15:40Z</time>
      </trkpt>
      <trkpt lat="44.91104" lon="4.19087">
        <ele>1748.29</ele>
        <time>2020-09-13T09:15:43Z</time>
      </trkpt>
      <trkpt lat="44.91104" lon="4.1908">
        <ele>1749.74</ele>
        <time>2020-09-13T09:15:59Z</time>
      </trkpt>
      <trkpt lat="44.91103" lon="4.19082">
        <ele>1748.78</ele>
        <time>2020-09-13T09:16:18Z</time>
      </trkpt>
      <trkpt lat="44.91103" lon="4.19091">
        <ele>1748.78</ele>
        <time>2020-09-13T09:16:43Z</time>
      </trkpt>
      <trkpt lat="44.91097" lon="4.19099">
        <ele>1747.81</ele>
        <time>2020-09-13T09:16:58Z</time>
      </trkpt>
      <trkpt lat="44.91094" lon="4.19103">
        <ele>1746.85</ele>
        <time>2020-09-13T09:17:07Z</time>
      </trkpt>
      <trkpt lat="44.91088" lon="4.19121">
        <ele>1743.97</ele>
        <time>2020-09-13T09:17:24Z</time>
      </trkpt>
      <trkpt lat="44.91083" lon="4.19138">
        <ele>1741.57</ele>
        <time>2020-09-13T09:17:41Z</time>
      </trkpt>
      <trkpt lat="44.91082" lon="4.19142">
        <ele>1739.16</ele>
        <time>2020-09-13T09:17:56Z</time>
      </trkpt>
      <trkpt lat="44.9108" lon="4.19151">
        <ele>1739.16</ele>
        <time>2020-09-13T09:18:03Z</time>
      </trkpt>
      <trkpt lat="44.91073" lon="4.19177">
        <ele>1739.16</ele>
        <time>2020-09-13T09:18:22Z</time>
      </trkpt>
      <trkpt lat="44.91064" lon="4.19201">
        <ele>1739.16</ele>
        <time>2020-09-13T09:18:41Z</time>
      </trkpt>
      <trkpt lat="44.91052" lon="4.19224">
        <ele>1740.6</ele>
        <time>2020-09-13T09:19:01Z</time>
      </trkpt>
      <trkpt lat="44.91045" lon="4.19242">
        <ele>1741.08</ele>
        <time>2020-09-13T09:19:20Z</time>
      </trkpt>
      <trkpt lat="44.91049" lon="4.19249">
        <ele>1740.6</ele>
        <time>2020-09-13T09:19:34Z</time>
      </trkpt>
      <trkpt lat="44.91051" lon="4.19251">
        <ele>1741.08</ele>
        <time>2020-09-13T09:19:37Z</time>
      </trkpt>
      <trkpt lat="44.91057" lon="4.1926">
        <ele>1739.64</ele>
        <time>2020-09-13T09:19:48Z</time>
      </trkpt>
      <trkpt lat="44.91061" lon="4.19266">
        <ele>1739.16</ele>
        <time>2020-09-13T09:19:53Z</time>
      </trkpt>
      <trkpt lat="44.91073" lon="4.19287">
        <ele>1737.24</ele>
        <time>2020-09-13T09:20:11Z</time>
      </trkpt>
      <trkpt lat="44.91073" lon="4.19299">
        <ele>1736.28</ele>
        <time>2020-09-13T09:20:29Z</time>
      </trkpt>
      <trkpt lat="44.91074" lon="4.19299">
        <ele>1736.28</ele>
        <time>2020-09-13T09:20:55Z</time>
      </trkpt>
      <trkpt lat="44.91074" lon="4.19296">
        <ele>1736.76</ele>
        <time>2020-09-13T09:21:24Z</time>
      </trkpt>
      <trkpt lat="44.91079" lon="4.19297">
        <ele>1736.76</ele>
        <time>2020-09-13T09:21:46Z</time>
      </trkpt>
      <trkpt lat="44.91082" lon="4.19295">
        <ele>1736.76</ele>
        <time>2020-09-13T09:22:03Z</time>
      </trkpt>
      <trkpt lat="44.91097" lon="4.1928">
        <ele>1734.36</ele>
        <time>2020-09-13T09:22:22Z</time>
      </trkpt>
      <trkpt lat="44.91106" lon="4.19265">
        <ele>1733.39</ele>
        <time>2020-09-13T09:22:38Z</time>
      </trkpt>
      <trkpt lat="44.9111" lon="4.19262">
        <ele>1732.43</ele>
        <time>2020-09-13T09:22:43Z</time>
      </trkpt>
      <trkpt lat="44.9112" lon="4.19258">
        <ele>1730.99</ele>
        <time>2020-09-13T09:22:54Z</time>
      </trkpt>
      <trkpt lat="44.91129" lon="4.19253">
        <ele>1729.55</ele>
        <time>2020-09-13T09:23:05Z</time>
      </trkpt>
      <trkpt lat="44.91131" lon="4.19252">
        <ele>1729.55</ele>
        <time>2020-09-13T09:23:07Z</time>
      </trkpt>
      <trkpt lat="44.91147" lon="4.19235">
        <ele>1728.59</ele>
        <time>2020-09-13T09:23:26Z</time>
      </trkpt>
      <trkpt lat="44.91154" lon="4.19225">
        <ele>1728.11</ele>
        <time>2020-09-13T09:23:35Z</time>
      </trkpt>
      <trkpt lat="44.91167" lon="4.19213">
        <ele>1727.15</ele>
        <time>2020-09-13T09:23:50Z</time>
      </trkpt>
      <trkpt lat="44.91182" lon="4.19193">
        <ele>1727.63</ele>
        <time>2020-09-13T09:24:08Z</time>
      </trkpt>
      <trkpt lat="44.91189" lon="4.19188">
        <ele>1727.63</ele>
        <time>2020-09-13T09:24:16Z</time>
      </trkpt>
      <trkpt lat="44.91194" lon="4.19186">
        <ele>1727.15</ele>
        <time>2020-09-13T09:24:20Z</time>
      </trkpt>
      <trkpt lat="44.91214" lon="4.19172">
        <ele>1726.18</ele>
        <time>2020-09-13T09:24:38Z</time>
      </trkpt>
      <trkpt lat="44.91221" lon="4.19165">
        <ele>1725.7</ele>
        <time>2020-09-13T09:24:47Z</time>
      </trkpt>
      <trkpt lat="44.91235" lon="4.1915">
        <ele>1723.78</ele>
        <time>2020-09-13T09:25:04Z</time>
      </trkpt>
      <trkpt lat="44.91245" lon="4.1914">
        <ele>1722.82</ele>
        <time>2020-09-13T09:25:15Z</time>
      </trkpt>
      <trkpt lat="44.91266" lon="4.19135">
        <ele>1721.38</ele>
        <time>2020-09-13T09:25:35Z</time>
      </trkpt>
      <trkpt lat="44.91284" lon="4.19127">
        <ele>1720.42</ele>
        <time>2020-09-13T09:25:52Z</time>
      </trkpt>
      <trkpt lat="44.91301" lon="4.19113">
        <ele>1719.46</ele>
        <time>2020-09-13T09:26:10Z</time>
      </trkpt>
      <trkpt lat="44.91322" lon="4.19098">
        <ele>1719.94</ele>
        <time>2020-09-13T09:26:31Z</time>
      </trkpt>
      <trkpt lat="44.91332" lon="4.1909">
        <ele>1720.9</ele>
        <time>2020-09-13T09:26:43Z</time>
      </trkpt>
      <trkpt lat="44.91334" lon="4.19088">
        <ele>1720.9</ele>
        <time>2020-09-13T09:26:45Z</time>
      </trkpt>
      <trkpt lat="44.91348" lon="4.19078">
        <ele>1722.82</ele>
        <time>2020-09-13T09:27:01Z</time>
      </trkpt>
      <trkpt lat="44.91351" lon="4.19074">
        <ele>1723.3</ele>
        <time>2020-09-13T09:27:05Z</time>
      </trkpt>
      <trkpt lat="44.91369" lon="4.19062">
        <ele>1725.22</ele>
        <time>2020-09-13T09:27:25Z</time>
      </trkpt>
      <trkpt lat="44.91381" lon="4.19048">
        <ele>1727.15</ele>
        <time>2020-09-13T09:27:40Z</time>
      </trkpt>
      <trkpt lat="44.91383" lon="4.19046">
        <ele>1727.63</ele>
        <time>2020-09-13T09:27:42Z</time>
      </trkpt>
      <trkpt lat="44.91394" lon="4.19033">
        <ele>1729.07</ele>
        <time>2020-09-13T09:27:58Z</time>
      </trkpt>
      <trkpt lat="44.914" lon="4.19024">
        <ele>1732.43</ele>
        <time>2020-09-13T09:28:09Z</time>
      </trkpt>
      <trkpt lat="44.91403" lon="4.19024">
        <ele>1732.43</ele>
        <time>2020-09-13T09:28:12Z</time>
      </trkpt>
      <trkpt lat="44.91405" lon="4.19022">
        <ele>1732.91</ele>
        <time>2020-09-13T09:28:15Z</time>
      </trkpt>
      <trkpt lat="44.91408" lon="4.19012">
        <ele>1736.28</ele>
        <time>2020-09-13T09:28:24Z</time>
      </trkpt>
      <trkpt lat="44.91415" lon="4.19003">
        <ele>1739.64</ele>
        <time>2020-09-13T09:28:40Z</time>
      </trkpt>
      <trkpt lat="44.91419" lon="4.18999">
        <ele>1741.08</ele>
        <time>2020-09-13T09:28:59Z</time>
      </trkpt>
      <trkpt lat="44.91416" lon="4.18999">
        <ele>1741.08</ele>
        <time>2020-09-13T09:29:21Z</time>
      </trkpt>
      <trkpt lat="44.91418" lon="4.18997">
        <ele>1741.57</ele>
        <time>2020-09-13T09:29:52Z</time>
      </trkpt>
      <trkpt lat="44.91418" lon="4.18995">
        <ele>1740.6</ele>
        <time>2020-09-13T09:30:15Z</time>
      </trkpt>
      <trkpt lat="44.91419" lon="4.18997">
        <ele>1741.57</ele>
        <time>2020-09-13T09:30:47Z</time>
      </trkpt>
      <trkpt lat="44.91419" lon="4.18996">
        <ele>1741.57</ele>
        <time>2020-09-13T09:31:13Z</time>
      </trkpt>
      <trkpt lat="44.91415" lon="4.19001">
        <ele>1742.05</ele>
        <time>2020-09-13T09:31:37Z</time>
      </trkpt>
      <trkpt lat="44.91409" lon="4.18998">
        <ele>1739.16</ele>
        <time>2020-09-13T09:31:53Z</time>
      </trkpt>
      <trkpt lat="44.91409" lon="4.18992">
        <ele>1737.24</ele>
        <time>2020-09-13T09:32:09Z</time>
      </trkpt>
      <trkpt lat="44.91405" lon="4.18988">
        <ele>1735.8</ele>
        <time>2020-09-13T09:32:28Z</time>
      </trkpt>
      <trkpt lat="44.91398" lon="4.18992">
        <ele>1733.39</ele>
        <time>2020-09-13T09:32:47Z</time>
      </trkpt>
      <trkpt lat="44.91398" lon="4.18991">
        <ele>1732.91</ele>
        <time>2020-09-13T09:33:13Z</time>
      </trkpt>
      <trkpt lat="44.91398" lon="4.18994">
        <ele>1732.91</ele>
        <time>2020-09-13T09:33:44Z</time>
      </trkpt>
      <trkpt lat="44.9139" lon="4.19003">
        <ele>1732.91</ele>
        <time>2020-09-13T09:34:00Z</time>
      </trkpt>
      <trkpt lat="44.91385" lon="4.1901">
        <ele>1732.91</ele>
        <time>2020-09-13T09:34:20Z</time>
      </trkpt>
      <trkpt lat="44.91375" lon="4.19019">
        <ele>1732.91</ele>
        <time>2020-09-13T09:34:42Z</time>
      </trkpt>
      <trkpt lat="44.91375" lon="4.19019">
        <ele>1725.22</ele>
        <time>2020-09-13T09:34:47Z</time>
      </trkpt>
      <trkpt lat="44.91375" lon="4.19019">
        <ele>1725.22</ele>
        <time>2020-09-13T09:34:48Z</time>
      </trkpt>
      <trkpt lat="44.91374" lon="4.19019">
        <ele>1724.74</ele>
        <time>2020-09-13T09:35:15Z</time>
      </trkpt>
      <trkpt lat="44.91374" lon="4.19018">
        <ele>1725.22</ele>
        <time>2020-09-13T09:35:56Z</time>
      </trkpt>
      <trkpt lat="44.91374" lon="4.19018">
        <ele>1725.22</ele>
        <time>2020-09-13T09:36:15Z</time>
      </trkpt>
      <trkpt lat="44.91374" lon="4.19015">
        <ele>1725.22</ele>
        <time>2020-09-13T09:36:42Z</time>
      </trkpt>
      <trkpt lat="44.91365" lon="4.19">
        <ele>1725.22</ele>
        <time>2020-09-13T09:37:01Z</time>
      </trkpt>
      <trkpt lat="44.91356" lon="4.18991">
        <ele>1722.82</ele>
        <time>2020-09-13T09:37:15Z</time>
      </trkpt>
      <trkpt lat="44.91353" lon="4.18984">
        <ele>1717.53</ele>
        <time>2020-09-13T09:37:22Z</time>
      </trkpt>
      <trkpt lat="44.91349" lon="4.1897">
        <ele>1715.61</ele>
        <time>2020-09-13T09:37:35Z</time>
      </trkpt>
      <trkpt lat="44.91348" lon="4.18965">
        <ele>1714.65</ele>
        <time>2020-09-13T09:37:39Z</time>
      </trkpt>
      <trkpt lat="44.91349" lon="4.18955">
        <ele>1713.69</ele>
        <time>2020-09-13T09:37:46Z</time>
      </trkpt>
      <trkpt lat="44.9134" lon="4.18937">
        <ele>1711.76</ele>
        <time>2020-09-13T09:38:01Z</time>
      </trkpt>
      <trkpt lat="44.91337" lon="4.18935">
        <ele>1710.8</ele>
        <time>2020-09-13T09:38:05Z</time>
      </trkpt>
      <trkpt lat="44.91322" lon="4.18929">
        <ele>1708.88</ele>
        <time>2020-09-13T09:38:22Z</time>
      </trkpt>
      <trkpt lat="44.91307" lon="4.18929">
        <ele>1707.44</ele>
        <time>2020-09-13T09:38:37Z</time>
      </trkpt>
      <trkpt lat="44.91294" lon="4.18933">
        <ele>1706</ele>
        <time>2020-09-13T09:38:53Z</time>
      </trkpt>
      <trkpt lat="44.91281" lon="4.18933">
        <ele>1703.11</ele>
        <time>2020-09-13T09:39:08Z</time>
      </trkpt>
      <trkpt lat="44.91266" lon="4.18934">
        <ele>1700.23</ele>
        <time>2020-09-13T09:39:25Z</time>
      </trkpt>
      <trkpt lat="44.91251" lon="4.18938">
        <ele>1697.83</ele>
        <time>2020-09-13T09:39:40Z</time>
      </trkpt>
      <trkpt lat="44.91242" lon="4.18936">
        <ele>1696.86</ele>
        <time>2020-09-13T09:39:56Z</time>
      </trkpt>
      <trkpt lat="44.91231" lon="4.18929">
        <ele>1694.94</ele>
        <time>2020-09-13T09:40:10Z</time>
      </trkpt>
      <trkpt lat="44.91222" lon="4.18922">
        <ele>1693.98</ele>
        <time>2020-09-13T09:40:20Z</time>
      </trkpt>
      <trkpt lat="44.91205" lon="4.1892">
        <ele>1691.58</ele>
        <time>2020-09-13T09:40:39Z</time>
      </trkpt>
      <trkpt lat="44.91199" lon="4.18917">
        <ele>1689.65</ele>
        <time>2020-09-13T09:40:46Z</time>
      </trkpt>
      <trkpt lat="44.91183" lon="4.18907">
        <ele>1686.77</ele>
        <time>2020-09-13T09:41:03Z</time>
      </trkpt>
      <trkpt lat="44.91169" lon="4.18904">
        <ele>1684.37</ele>
        <time>2020-09-13T09:41:18Z</time>
      </trkpt>
      <trkpt lat="44.91167" lon="4.18902">
        <ele>1683.41</ele>
        <time>2020-09-13T09:41:20Z</time>
      </trkpt>
      <trkpt lat="44.91158" lon="4.18894">
        <ele>1680.04</ele>
        <time>2020-09-13T09:41:34Z</time>
      </trkpt>
      <trkpt lat="44.91157" lon="4.18893">
        <ele>1680.04</ele>
        <time>2020-09-13T09:41:35Z</time>
      </trkpt>
      <trkpt lat="44.91159" lon="4.18886">
        <ele>1678.12</ele>
        <time>2020-09-13T09:41:49Z</time>
      </trkpt>
      <trkpt lat="44.91162" lon="4.18874">
        <ele>1676.2</ele>
        <time>2020-09-13T09:42:01Z</time>
      </trkpt>
      <trkpt lat="44.91168" lon="4.18853">
        <ele>1672.83</ele>
        <time>2020-09-13T09:42:17Z</time>
      </trkpt>
      <trkpt lat="44.91167" lon="4.18837">
        <ele>1670.43</ele>
        <time>2020-09-13T09:42:29Z</time>
      </trkpt>
      <trkpt lat="44.91156" lon="4.18829">
        <ele>1668.02</ele>
        <time>2020-09-13T09:42:44Z</time>
      </trkpt>
      <trkpt lat="44.91154" lon="4.18827">
        <ele>1665.62</ele>
        <time>2020-09-13T09:43:02Z</time>
      </trkpt>
      <trkpt lat="44.91153" lon="4.18828">
        <ele>1666.58</ele>
        <time>2020-09-13T09:43:35Z</time>
      </trkpt>
      <trkpt lat="44.91154" lon="4.18827">
        <ele>1666.1</ele>
        <time>2020-09-13T09:44:05Z</time>
      </trkpt>
      <trkpt lat="44.91151" lon="4.18827">
        <ele>1665.62</ele>
        <time>2020-09-13T09:44:30Z</time>
      </trkpt>
      <trkpt lat="44.9115" lon="4.18823">
        <ele>1664.66</ele>
        <time>2020-09-13T09:44:56Z</time>
      </trkpt>
      <trkpt lat="44.91146" lon="4.1882">
        <ele>1664.66</ele>
        <time>2020-09-13T09:45:24Z</time>
      </trkpt>
      <trkpt lat="44.91136" lon="4.18811">
        <ele>1662.74</ele>
        <time>2020-09-13T09:45:39Z</time>
      </trkpt>
      <trkpt lat="44.9113" lon="4.188">
        <ele>1660.33</ele>
        <time>2020-09-13T09:45:56Z</time>
      </trkpt>
      <trkpt lat="44.91121" lon="4.18784">
        <ele>1658.41</ele>
        <time>2020-09-13T09:46:15Z</time>
      </trkpt>
      <trkpt lat="44.91111" lon="4.18766">
        <ele>1655.05</ele>
        <time>2020-09-13T09:46:33Z</time>
      </trkpt>
      <trkpt lat="44.91103" lon="4.1875">
        <ele>1652.16</ele>
        <time>2020-09-13T09:46:47Z</time>
      </trkpt>
      <trkpt lat="44.91091" lon="4.18733">
        <ele>1649.28</ele>
        <time>2020-09-13T09:47:04Z</time>
      </trkpt>
      <trkpt lat="44.9109" lon="4.18709">
        <ele>1646.88</ele>
        <time>2020-09-13T09:47:21Z</time>
      </trkpt>
      <trkpt lat="44.91089" lon="4.18685">
        <ele>1643.99</ele>
        <time>2020-09-13T09:47:37Z</time>
      </trkpt>
      <trkpt lat="44.91089" lon="4.18682">
        <ele>1643.51</ele>
        <time>2020-09-13T09:47:39Z</time>
      </trkpt>
      <trkpt lat="44.91083" lon="4.18664">
        <ele>1640.63</ele>
        <time>2020-09-13T09:47:58Z</time>
      </trkpt>
      <trkpt lat="44.9108" lon="4.18665">
        <ele>1640.15</ele>
        <time>2020-09-13T09:48:24Z</time>
      </trkpt>
      <trkpt lat="44.91081" lon="4.18663">
        <ele>1640.15</ele>
        <time>2020-09-13T09:49:25Z</time>
      </trkpt>
      <trkpt lat="44.91078" lon="4.1866">
        <ele>1640.15</ele>
        <time>2020-09-13T09:50:25Z</time>
      </trkpt>
      <trkpt lat="44.91081" lon="4.18656">
        <ele>1640.15</ele>
        <time>2020-09-13T09:50:46Z</time>
      </trkpt>
      <trkpt lat="44.91077" lon="4.18648">
        <ele>1640.15</ele>
        <time>2020-09-13T09:51:04Z</time>
      </trkpt>
      <trkpt lat="44.9106" lon="4.18642">
        <ele>1640.15</ele>
        <time>2020-09-13T09:51:24Z</time>
      </trkpt>
      <trkpt lat="44.91053" lon="4.18638">
        <ele>1636.78</ele>
        <time>2020-09-13T09:51:34Z</time>
      </trkpt>
      <trkpt lat="44.91046" lon="4.18628">
        <ele>1634.86</ele>
        <time>2020-09-13T09:51:54Z</time>
      </trkpt>
      <trkpt lat="44.91049" lon="4.18621">
        <ele>1633.42</ele>
        <time>2020-09-13T09:52:01Z</time>
      </trkpt>
      <trkpt lat="44.91063" lon="4.18603">
        <ele>1631.49</ele>
        <time>2020-09-13T09:52:18Z</time>
      </trkpt>
      <trkpt lat="44.91067" lon="4.18584">
        <ele>1629.09</ele>
        <time>2020-09-13T09:52:35Z</time>
      </trkpt>
      <trkpt lat="44.91066" lon="4.18581">
        <ele>1628.61</ele>
        <time>2020-09-13T09:52:37Z</time>
      </trkpt>
      <trkpt lat="44.91057" lon="4.1856">
        <ele>1626.21</ele>
        <time>2020-09-13T09:52:54Z</time>
      </trkpt>
      <trkpt lat="44.91057" lon="4.18556">
        <ele>1625.73</ele>
        <time>2020-09-13T09:52:57Z</time>
      </trkpt>
      <trkpt lat="44.91061" lon="4.18536">
        <ele>1622.36</ele>
        <time>2020-09-13T09:53:16Z</time>
      </trkpt>
      <trkpt lat="44.91064" lon="4.18514">
        <ele>1619.48</ele>
        <time>2020-09-13T09:53:33Z</time>
      </trkpt>
      <trkpt lat="44.91072" lon="4.18494">
        <ele>1617.07</ele>
        <time>2020-09-13T09:53:50Z</time>
      </trkpt>
      <trkpt lat="44.91089" lon="4.18476">
        <ele>1615.63</ele>
        <time>2020-09-13T09:54:12Z</time>
      </trkpt>
      <trkpt lat="44.91114" lon="4.18457">
        <ele>1614.19</ele>
        <time>2020-09-13T09:54:34Z</time>
      </trkpt>
      <trkpt lat="44.91115" lon="4.18456">
        <ele>1614.19</ele>
        <time>2020-09-13T09:54:35Z</time>
      </trkpt>
      <trkpt lat="44.91127" lon="4.18437">
        <ele>1611.79</ele>
        <time>2020-09-13T09:54:51Z</time>
      </trkpt>
      <trkpt lat="44.91133" lon="4.18417">
        <ele>1610.35</ele>
        <time>2020-09-13T09:55:09Z</time>
      </trkpt>
      <trkpt lat="44.91133" lon="4.18416">
        <ele>1609.86</ele>
        <time>2020-09-13T09:55:10Z</time>
      </trkpt>
      <trkpt lat="44.91147" lon="4.18402">
        <ele>1607.94</ele>
        <time>2020-09-13T09:55:25Z</time>
      </trkpt>
      <trkpt lat="44.91166" lon="4.18392">
        <ele>1606.98</ele>
        <time>2020-09-13T09:55:46Z</time>
      </trkpt>
      <trkpt lat="44.91182" lon="4.18371">
        <ele>1605.54</ele>
        <time>2020-09-13T09:56:01Z</time>
      </trkpt>
      <trkpt lat="44.91198" lon="4.18359">
        <ele>1604.58</ele>
        <time>2020-09-13T09:56:20Z</time>
      </trkpt>
      <trkpt lat="44.91204" lon="4.18352">
        <ele>1603.62</ele>
        <time>2020-09-13T09:56:29Z</time>
      </trkpt>
      <trkpt lat="44.91218" lon="4.18336">
        <ele>1602.17</ele>
        <time>2020-09-13T09:56:45Z</time>
      </trkpt>
      <trkpt lat="44.91234" lon="4.18325">
        <ele>1600.73</ele>
        <time>2020-09-13T09:57:01Z</time>
      </trkpt>
      <trkpt lat="44.91237" lon="4.18322">
        <ele>1600.25</ele>
        <time>2020-09-13T09:57:04Z</time>
      </trkpt>
      <trkpt lat="44.91249" lon="4.18309">
        <ele>1599.29</ele>
        <time>2020-09-13T09:57:21Z</time>
      </trkpt>
      <trkpt lat="44.91266" lon="4.18289">
        <ele>1597.37</ele>
        <time>2020-09-13T09:57:40Z</time>
      </trkpt>
      <trkpt lat="44.91276" lon="4.18279">
        <ele>1596.89</ele>
        <time>2020-09-13T09:57:49Z</time>
      </trkpt>
      <trkpt lat="44.91279" lon="4.18277">
        <ele>1596.41</ele>
        <time>2020-09-13T09:57:51Z</time>
      </trkpt>
      <trkpt lat="44.91291" lon="4.18267">
        <ele>1595.45</ele>
        <time>2020-09-13T09:58:05Z</time>
      </trkpt>
      <trkpt lat="44.91308" lon="4.18257">
        <ele>1594.48</ele>
        <time>2020-09-13T09:58:21Z</time>
      </trkpt>
      <trkpt lat="44.91324" lon="4.18245">
        <ele>1594</ele>
        <time>2020-09-13T09:58:39Z</time>
      </trkpt>
      <trkpt lat="44.91345" lon="4.18228">
        <ele>1593.04</ele>
        <time>2020-09-13T09:58:57Z</time>
      </trkpt>
      <trkpt lat="44.91359" lon="4.1822">
        <ele>1593.04</ele>
        <time>2020-09-13T09:59:12Z</time>
      </trkpt>
      <trkpt lat="44.91363" lon="4.18205">
        <ele>1592.08</ele>
        <time>2020-09-13T09:59:28Z</time>
      </trkpt>
      <trkpt lat="44.9136" lon="4.18204">
        <ele>1591.6</ele>
        <time>2020-09-13T09:59:49Z</time>
      </trkpt>
      <trkpt lat="44.91351" lon="4.18195">
        <ele>1591.6</ele>
        <time>2020-09-13T10:00:01Z</time>
      </trkpt>
      <trkpt lat="44.91348" lon="4.1819">
        <ele>1591.12</ele>
        <time>2020-09-13T10:00:05Z</time>
      </trkpt>
      <trkpt lat="44.91337" lon="4.18169">
        <ele>1589.68</ele>
        <time>2020-09-13T10:00:21Z</time>
      </trkpt>
      <trkpt lat="44.91321" lon="4.18148">
        <ele>1588.72</ele>
        <time>2020-09-13T10:00:38Z</time>
      </trkpt>
      <trkpt lat="44.9131" lon="4.1813">
        <ele>1586.79</ele>
        <time>2020-09-13T10:00:53Z</time>
      </trkpt>
      <trkpt lat="44.91297" lon="4.18119">
        <ele>1584.87</ele>
        <time>2020-09-13T10:01:07Z</time>
      </trkpt>
      <trkpt lat="44.91268" lon="4.18115">
        <ele>1581.99</ele>
        <time>2020-09-13T10:01:31Z</time>
      </trkpt>
      <trkpt lat="44.91248" lon="4.18119">
        <ele>1581.51</ele>
        <time>2020-09-13T10:01:47Z</time>
      </trkpt>
      <trkpt lat="44.91232" lon="4.18134">
        <ele>1581.99</ele>
        <time>2020-09-13T10:02:03Z</time>
      </trkpt>
      <trkpt lat="44.91214" lon="4.18156">
        <ele>1583.43</ele>
        <time>2020-09-13T10:02:24Z</time>
      </trkpt>
      <trkpt lat="44.91189" lon="4.18181">
        <ele>1584.39</ele>
        <time>2020-09-13T10:02:45Z</time>
      </trkpt>
      <trkpt lat="44.91171" lon="4.18198">
        <ele>1585.83</ele>
        <time>2020-09-13T10:03:04Z</time>
      </trkpt>
      <trkpt lat="44.9115" lon="4.18224">
        <ele>1586.79</ele>
        <time>2020-09-13T10:03:24Z</time>
      </trkpt>
      <trkpt lat="44.91132" lon="4.18238">
        <ele>1588.72</ele>
        <time>2020-09-13T10:03:42Z</time>
      </trkpt>
      <trkpt lat="44.91119" lon="4.18248">
        <ele>1590.16</ele>
        <time>2020-09-13T10:03:57Z</time>
      </trkpt>
      <trkpt lat="44.91099" lon="4.18261">
        <ele>1592.08</ele>
        <time>2020-09-13T10:04:15Z</time>
      </trkpt>
      <trkpt lat="44.91086" lon="4.1827">
        <ele>1592.56</ele>
        <time>2020-09-13T10:04:31Z</time>
      </trkpt>
      <trkpt lat="44.91062" lon="4.18279">
        <ele>1594</ele>
        <time>2020-09-13T10:04:52Z</time>
      </trkpt>
      <trkpt lat="44.91049" lon="4.18296">
        <ele>1595.93</ele>
        <time>2020-09-13T10:05:09Z</time>
      </trkpt>
      <trkpt lat="44.91034" lon="4.18313">
        <ele>1596.41</ele>
        <time>2020-09-13T10:05:35Z</time>
      </trkpt>
      <trkpt lat="44.91032" lon="4.18315">
        <ele>1596.41</ele>
        <time>2020-09-13T10:05:37Z</time>
      </trkpt>
      <trkpt lat="44.91016" lon="4.18321">
        <ele>1596.89</ele>
        <time>2020-09-13T10:05:54Z</time>
      </trkpt>
      <trkpt lat="44.90987" lon="4.18323">
        <ele>1596.89</ele>
        <time>2020-09-13T10:06:18Z</time>
      </trkpt>
      <trkpt lat="44.90969" lon="4.1833">
        <ele>1595.93</ele>
        <time>2020-09-13T10:06:36Z</time>
      </trkpt>
      <trkpt lat="44.90952" lon="4.18338">
        <ele>1595.45</ele>
        <time>2020-09-13T10:06:51Z</time>
      </trkpt>
      <trkpt lat="44.90927" lon="4.18349">
        <ele>1595.93</ele>
        <time>2020-09-13T10:07:09Z</time>
      </trkpt>
      <trkpt lat="44.90905" lon="4.18368">
        <ele>1596.41</ele>
        <time>2020-09-13T10:07:33Z</time>
      </trkpt>
      <trkpt lat="44.90884" lon="4.18392">
        <ele>1597.37</ele>
        <time>2020-09-13T10:07:54Z</time>
      </trkpt>
      <trkpt lat="44.90877" lon="4.1841">
        <ele>1598.81</ele>
        <time>2020-09-13T10:08:09Z</time>
      </trkpt>
      <trkpt lat="44.90864" lon="4.18431">
        <ele>1599.77</ele>
        <time>2020-09-13T10:08:25Z</time>
      </trkpt>
      <trkpt lat="44.90849" lon="4.18442">
        <ele>1599.77</ele>
        <time>2020-09-13T10:08:41Z</time>
      </trkpt>
      <trkpt lat="44.90844" lon="4.18445">
        <ele>1600.25</ele>
        <time>2020-09-13T10:09:07Z</time>
      </trkpt>
      <trkpt lat="44.90843" lon="4.18449">
        <ele>1598.81</ele>
        <time>2020-09-13T10:09:33Z</time>
      </trkpt>
      <trkpt lat="44.90845" lon="4.18449">
        <ele>1599.77</ele>
        <time>2020-09-13T10:10:04Z</time>
      </trkpt>
      <trkpt lat="44.90839" lon="4.18447">
        <ele>1598.81</ele>
        <time>2020-09-13T10:10:33Z</time>
      </trkpt>
      <trkpt lat="44.90837" lon="4.18453">
        <ele>1598.81</ele>
        <time>2020-09-13T10:11:02Z</time>
      </trkpt>
      <trkpt lat="44.90837" lon="4.1845">
        <ele>1598.81</ele>
        <time>2020-09-13T10:11:29Z</time>
      </trkpt>
      <trkpt lat="44.90838" lon="4.18452">
        <ele>1598.81</ele>
        <time>2020-09-13T10:11:52Z</time>
      </trkpt>
      <trkpt lat="44.9081" lon="4.18458">
        <ele>1595.93</ele>
        <time>2020-09-13T10:12:14Z</time>
      </trkpt>
      <trkpt lat="44.90784" lon="4.18461">
        <ele>1594</ele>
        <time>2020-09-13T10:12:35Z</time>
      </trkpt>
      <trkpt lat="44.90759" lon="4.18465">
        <ele>1592.56</ele>
        <time>2020-09-13T10:12:58Z</time>
      </trkpt>
      <trkpt lat="44.90741" lon="4.1847">
        <ele>1590.64</ele>
        <time>2020-09-13T10:13:13Z</time>
      </trkpt>
      <trkpt lat="44.90722" lon="4.18473">
        <ele>1589.68</ele>
        <time>2020-09-13T10:13:31Z</time>
      </trkpt>
      <trkpt lat="44.90695" lon="4.1848">
        <ele>1587.75</ele>
        <time>2020-09-13T10:13:53Z</time>
      </trkpt>
      <trkpt lat="44.90675" lon="4.18484">
        <ele>1585.83</ele>
        <time>2020-09-13T10:14:12Z</time>
      </trkpt>
      <trkpt lat="44.90654" lon="4.18487">
        <ele>1583.91</ele>
        <time>2020-09-13T10:14:31Z</time>
      </trkpt>
      <trkpt lat="44.90639" lon="4.18489">
        <ele>1582.47</ele>
        <time>2020-09-13T10:14:45Z</time>
      </trkpt>
      <trkpt lat="44.90628" lon="4.18483">
        <ele>1580.54</ele>
        <time>2020-09-13T10:14:58Z</time>
      </trkpt>
      <trkpt lat="44.90608" lon="4.18484">
        <ele>1577.66</ele>
        <time>2020-09-13T10:15:17Z</time>
      </trkpt>
      <trkpt lat="44.90581" lon="4.18492">
        <ele>1574.78</ele>
        <time>2020-09-13T10:15:41Z</time>
      </trkpt>
      <trkpt lat="44.90551" lon="4.18501">
        <ele>1572.37</ele>
        <time>2020-09-13T10:16:03Z</time>
      </trkpt>
      <trkpt lat="44.90528" lon="4.18508">
        <ele>1570.45</ele>
        <time>2020-09-13T10:16:23Z</time>
      </trkpt>
      <trkpt lat="44.90513" lon="4.18511">
        <ele>1569.01</ele>
        <time>2020-09-13T10:16:36Z</time>
      </trkpt>
      <trkpt lat="44.9049" lon="4.18519">
        <ele>1567.09</ele>
        <time>2020-09-13T10:16:56Z</time>
      </trkpt>
      <trkpt lat="44.90469" lon="4.18527">
        <ele>1565.64</ele>
        <time>2020-09-13T10:17:14Z</time>
      </trkpt>
      <trkpt lat="44.90445" lon="4.18536">
        <ele>1564.2</ele>
        <time>2020-09-13T10:17:35Z</time>
      </trkpt>
      <trkpt lat="44.90421" lon="4.18539">
        <ele>1561.32</ele>
        <time>2020-09-13T10:17:59Z</time>
      </trkpt>
      <trkpt lat="44.904" lon="4.18544">
        <ele>1557.95</ele>
        <time>2020-09-13T10:18:20Z</time>
      </trkpt>
      <trkpt lat="44.90383" lon="4.18547">
        <ele>1555.07</ele>
        <time>2020-09-13T10:18:34Z</time>
      </trkpt>
      <trkpt lat="44.90366" lon="4.18551">
        <ele>1552.19</ele>
        <time>2020-09-13T10:18:53Z</time>
      </trkpt>
      <trkpt lat="44.90339" lon="4.1855">
        <ele>1548.82</ele>
        <time>2020-09-13T10:19:17Z</time>
      </trkpt>
      <trkpt lat="44.90332" lon="4.18549">
        <ele>1547.38</ele>
        <time>2020-09-13T10:19:24Z</time>
      </trkpt>
      <trkpt lat="44.90319" lon="4.18543">
        <ele>1544.98</ele>
        <time>2020-09-13T10:19:37Z</time>
      </trkpt>
      <trkpt lat="44.90309" lon="4.18541">
        <ele>1544.01</ele>
        <time>2020-09-13T10:19:48Z</time>
      </trkpt>
      <trkpt lat="44.90294" lon="4.18533">
        <ele>1542.57</ele>
        <time>2020-09-13T10:20:00Z</time>
      </trkpt>
      <trkpt lat="44.9027" lon="4.18522">
        <ele>1539.21</ele>
        <time>2020-09-13T10:20:20Z</time>
      </trkpt>
      <trkpt lat="44.90244" lon="4.18519">
        <ele>1536.8</ele>
        <time>2020-09-13T10:20:41Z</time>
      </trkpt>
      <trkpt lat="44.90229" lon="4.18519">
        <ele>1534.88</ele>
        <time>2020-09-13T10:20:56Z</time>
      </trkpt>
      <trkpt lat="44.90205" lon="4.1851">
        <ele>1532</ele>
        <time>2020-09-13T10:21:18Z</time>
      </trkpt>
      <trkpt lat="44.9019" lon="4.18507">
        <ele>1530.56</ele>
        <time>2020-09-13T10:21:35Z</time>
      </trkpt>
      <trkpt lat="44.90176" lon="4.18502">
        <ele>1529.59</ele>
        <time>2020-09-13T10:22:03Z</time>
      </trkpt>
      <trkpt lat="44.90163" lon="4.185">
        <ele>1529.11</ele>
        <time>2020-09-13T10:22:17Z</time>
      </trkpt>
      <trkpt lat="44.9015" lon="4.18497">
        <ele>1528.15</ele>
        <time>2020-09-13T10:22:27Z</time>
      </trkpt>
      <trkpt lat="44.90136" lon="4.18492">
        <ele>1527.67</ele>
        <time>2020-09-13T10:22:40Z</time>
      </trkpt>
      <trkpt lat="44.90113" lon="4.18483">
        <ele>1525.75</ele>
        <time>2020-09-13T10:23:02Z</time>
      </trkpt>
      <trkpt lat="44.90092" lon="4.18472">
        <ele>1522.87</ele>
        <time>2020-09-13T10:23:22Z</time>
      </trkpt>
      <trkpt lat="44.9007" lon="4.18463">
        <ele>1519.98</ele>
        <time>2020-09-13T10:23:43Z</time>
      </trkpt>
      <trkpt lat="44.90052" lon="4.18454">
        <ele>1516.62</ele>
        <time>2020-09-13T10:24:03Z</time>
      </trkpt>
      <trkpt lat="44.90032" lon="4.18446">
        <ele>1513.73</ele>
        <time>2020-09-13T10:24:21Z</time>
      </trkpt>
      <trkpt lat="44.90008" lon="4.18455">
        <ele>1512.77</ele>
        <time>2020-09-13T10:24:41Z</time>
      </trkpt>
      <trkpt lat="44.89996" lon="4.18481">
        <ele>1512.29</ele>
        <time>2020-09-13T10:25:02Z</time>
      </trkpt>
      <trkpt lat="44.89979" lon="4.18502">
        <ele>1511.81</ele>
        <time>2020-09-13T10:25:22Z</time>
      </trkpt>
      <trkpt lat="44.89966" lon="4.18512">
        <ele>1512.29</ele>
        <time>2020-09-13T10:25:35Z</time>
      </trkpt>
    </trkseg>
  </trk>
</gpx>